Kezdőlap
METAR-TAF:

METAR-TAF

Repülőterek :

Franceville, Gabon

földrajzi szélesség: 01-39S, földrajzi hosszúság: 013-26E, magasság: 441 m

Jelenlegi meteorológiai megfigyelések

A jelentés 32 perccel ezelõtt készült, 18:00 UTC
Északi szél 2 kt
Hőmérséklet 27°C
Páratartalom 74%
Légköri nyomás 1011 hPa
Látótávolság 10 km, vagy több
Szórványos felhőzet 1300 lábon
Kevés felhő 2000 lábon, Cumulonimbus.
zivatar

METAR: FOON 151800Z 36002KT 9999 TS SCT013 FEW020CB 27/22 Q1011

Idő: 19:32 (18:32 UTC)


TAF: hiányzik

Meteorológiai megfigyelések és előrejelzések több, mint 4000 repülőtéren (METAR és TAF jelentéseket).

A térképen piros és sárga pontok jelzik az elérhető meteorológiai állomásokat.

Mozgassa az egeret a pont fölött, hogy megjelenjen az állomás neve.

Azután kattintson az időjárási megfigyelések és előrejelzések megtekintéséhez.

A térkép megváltoztatása: kattintson a fekete keresztel jelölt zöld gombra ráközelítéshez, a vonallal jelölt zöld gombra távolításhoz, vagy a zöld nyilakra a szomszédos térképek eléréséhez.


METAR-TAF: